Time;durP1;ratioP1;P1;durP2;ratioP2;P2;SDS_P1;SDS_P2;PMS_P1;PMS_P2;Temp;Humidity;BMP_temperature;BMP_pressure;BME280_temperature;BME280_humidity;BME280_pressure;Samples;Min_cycle;Max_cycle;Signal;HPM_P1;HPM_P2
2023/09/06 00:02:19;;;;;;;2.80;1.90;;;;;;;28.80;35.10;101424.31;102776;1294;61408;-81
2023/09/06 00:04:45;;;;;;;3.80;2.30;;;;;;;28.79;35.11;101420.77;102778;1295;61397;-82
2023/09/06 00:07:12;;;;;;;4.20;2.40;;;;;;;28.79;35.18;101420.25;102892;1294;62008;-82
2023/09/06 00:09:37;;;;;;;4.30;2.40;;;;;;;28.79;35.05;101422.56;102864;1293;61504;-82
2023/09/06 00:12:03;;;;;;;3.70;2.30;;;;;;;28.79;35.25;101431.44;102730;1293;61459;-82
2023/09/06 00:14:29;;;;;;;3.30;2.20;;;;;;;28.79;35.21;101430.73;102786;1292;61327;-82
2023/09/06 00:16:55;;;;;;;3.70;2.10;;;;;;;28.79;35.24;101427.14;102771;1293;62424;-82
2023/09/06 00:19:20;;;;;;;3.30;2.20;;;;;;;28.79;35.25;101425.72;102860;1293;61367;-80
2023/09/06 00:21:47;;;;;;;4.00;2.10;;;;;;;28.79;35.19;101426.23;102965;1298;61513;-81
2023/09/06 00:24:13;;;;;;;3.10;2.20;;;;;;;28.78;35.26;101425.02;102744;1293;61385;-81
2023/09/06 00:26:39;;;;;;;3.30;2.10;;;;;;;28.79;35.13;101422.83;102746;1294;61510;-81
2023/09/06 00:29:08;;;;;;;3.50;2.10;;;;;;;28.78;35.32;101425.39;102757;1294;62209;-81
2023/09/06 00:31:34;;;;;;;3.60;2.50;;;;;;;28.78;35.27;101424.14;102768;1294;65719;-83
2023/09/06 00:34:00;;;;;;;3.10;2.00;;;;;;;28.77;35.34;101420.56;102764;1296;61339;-83
2023/09/06 00:36:29;;;;;;;3.40;2.30;;;;;;;28.77;35.06;101422.56;102847;1291;61364;-82
2023/09/06 00:38:56;;;;;;;3.80;2.30;;;;;;;28.77;34.98;101421.16;102866;1289;63739;-82
2023/09/06 00:41:26;;;;;;;4.10;2.30;;;;;;;28.77;35.03;101422.24;102958;1290;65787;-82
2023/09/06 00:43:52;;;;;;;3.30;2.20;;;;;;;28.76;34.83;101422.63;102868;1293;61300;-82
2023/09/06 00:46:20;;;;;;;3.30;2.20;;;;;;;28.76;34.85;101423.40;102885;1290;62126;-82
2023/09/06 00:48:50;;;;;;;4.20;2.40;;;;;;;28.76;35.08;101421.06;102901;1291;63900;-81
2023/09/06 00:51:19;;;;;;;3.90;2.50;;;;;;;28.76;35.03;101417.09;102860;1290;65807;-81
2023/09/06 00:53:44;;;;;;;3.60;2.20;;;;;;;28.76;35.04;101414.33;102876;1289;61446;-82
2023/09/06 00:56:10;;;;;;;3.20;2.20;;;;;;;28.76;35.17;101410.02;102783;1291;61423;-81
2023/09/06 00:58:36;;;;;;;3.70;2.40;;;;;;;28.75;35.04;101405.86;102881;1291;61887;-81
2023/09/06 01:01:05;;;;;;;3.40;2.30;;;;;;;28.75;35.17;101405.90;102728;1296;61420;-81
2023/09/06 01:03:32;;;;;;;3.40;2.30;;;;;;;28.75;35.19;101400.64;102880;1290;61854;-82
2023/09/06 01:06:05;;;;;;;3.50;2.20;;;;;;;28.75;35.06;101399.95;102821;1295;61408;-82
2023/09/06 01:08:37;;;;;;;3.10;2.30;;;;;;;28.75;35.01;101403.58;102806;1291;64727;-82
2023/09/06 01:11:20;;;;;;;3.80;2.40;;;;;;;28.74;35.11;101404.20;102790;1289;65890;-82
2023/09/06 01:13:48;;;;;;;2.80;2.20;;;;;;;28.74;35.10;101400.96;102937;1291;62035;-82
2023/09/06 01:16:16;;;;;;;3.90;2.20;;;;;;;28.74;35.15;101403.52;102990;1290;61401;-80
2023/09/06 01:18:42;;;;;;;4.50;2.40;;;;;;;28.74;35.14;101403.14;103145;1291;64870;-81
2023/09/06 01:21:10;;;;;;;3.30;2.30;;;;;;;28.74;35.14;101405.13;102898;1289;66785;-81
2023/09/06 01:23:37;;;;;;;3.20;2.20;;;;;;;28.74;35.11;101403.33;102888;1290;61463;-81
2023/09/06 01:26:03;;;;;;;3.60;2.10;;;;;;;28.73;35.04;101404.09;102905;1295;61456;-81
2023/09/06 01:28:29;;;;;;;3.50;2.10;;;;;;;28.74;35.11;101402.42;103042;1293;61491;-81
2023/09/06 01:30:55;;;;;;;4.40;2.30;;;;;;;28.73;35.23;101399.95;102759;1290;62608;-81
2023/09/06 01:33:20;;;;;;;3.30;2.30;;;;;;;28.74;35.17;101400.96;102803;1291;62551;-81
2023/09/06 01:35:46;;;;;;;3.50;2.30;;;;;;;28.73;35.05;101401.73;102772;1294;61434;-81
2023/09/06 01:38:11;;;;;;;4.10;2.30;;;;;;;28.74;35.35;101406.59;102862;1294;61393;-81
2023/09/06 01:40:37;;;;;;;3.80;2.40;;;;;;;28.73;35.35;101408.45;102730;1292;63914;-81
2023/09/06 01:43:03;;;;;;;3.70;2.20;;;;;;;28.74;35.22;101407.14;102764;1294;62256;-81
2023/09/06 01:45:29;;;;;;;3.90;2.40;;;;;;;28.73;35.21;101407.59;102730;1296;61425;-81
2023/09/06 01:47:55;;;;;;;3.70;2.10;;;;;;;28.73;35.10;101408.52;102773;1293;61815;-81
2023/09/06 01:50:20;;;;;;;4.80;2.20;;;;;;;28.72;35.12;101403.65;102791;1293;61517;-81
2023/09/06 01:52:47;;;;;;;3.10;2.20;;;;;;;28.73;35.25;101399.10;102825;1294;63038;-80
2023/09/06 01:55:12;;;;;;;3.40;2.10;;;;;;;28.72;35.17;101399.85;102716;1293;66118;-81
2023/09/06 01:57:39;;;;;;;2.90;2.10;;;;;;;28.72;35.18;101396.94;102735;1294;61466;-81
2023/09/06 02:00:26;;;;;;;3.90;2.30;;;;;;;28.72;35.35;101397.16;102762;1291;62498;-82
2023/09/06 02:02:52;;;;;;;3.40;2.20;;;;;;;28.72;35.40;101396.48;102858;1292;64383;-81
2023/09/06 02:05:18;;;;;;;3.40;2.20;;;;;;;28.71;35.13;101398.85;102875;1292;61496;-81
2023/09/06 02:07:44;;;;;;;3.60;2.20;;;;;;;28.71;35.14;101400.31;102729;1293;62437;-81
2023/09/06 02:10:10;;;;;;;4.10;2.40;;;;;;;28.72;35.15;101404.96;102858;1293;61405;-82
2023/09/06 02:12:36;;;;;;;3.60;2.10;;;;;;;28.71;35.13;101400.89;102828;1292;61399;-82
2023/09/06 02:15:05;;;;;;;3.00;2.00;;;;;;;28.71;35.32;101399.45;102739;1294;61449;-82
2023/09/06 02:17:32;;;;;;;3.90;2.40;;;;;;;28.71;35.38;101402.84;102727;1296;61354;-81
2023/09/06 02:20:01;;;;;;;3.70;2.30;;;;;;;28.71;35.30;101403.77;102720;1294;61371;-82
2023/09/06 02:22:27;;;;;;;3.40;2.10;;;;;;;28.71;35.32;101406.14;102841;1295;63751;-82
2023/09/06 02:24:54;;;;;;;4.00;2.20;;;;;;;28.71;35.16;101401.65;102721;1291;61476;-81
2023/09/06 02:27:19;;;;;;;5.00;2.50;;;;;;;28.71;35.34;101407.59;102760;1294;61881;-82
2023/09/06 02:29:45;;;;;;;3.30;2.20;;;;;;;28.71;35.31;101408.34;102939;1293;61400;-83
2023/09/06 02:32:13;;;;;;;3.30;2.20;;;;;;;28.70;35.19;101407.30;102782;1294;61332;-83
2023/09/06 02:34:38;;;;;;;4.00;2.20;;;;;;;28.70;35.31;101406.74;102766;1295;61316;-81
2023/09/06 02:37:04;;;;;;;3.20;2.10;;;;;;;28.70;35.37;101405.83;102830;1290;61444;-81
2023/09/06 02:39:29;;;;;;;4.00;2.50;;;;;;;28.70;35.16;101405.29;102873;1291;62721;-81
2023/09/06 02:41:55;;;;;;;3.10;2.10;;;;;;;28.70;35.20;101404.20;102772;1291;61491;-81
2023/09/06 02:44:20;;;;;;;3.60;2.10;;;;;;;28.70;35.30;101402.91;102854;1289;61404;-81
2023/09/06 03:02:26;;;;;;;3.30;2.10;;;;;;;29.31;34.63;101406.73;103313;1295;603388;-78
2023/09/06 03:04:57;;;;;;;3.40;2.20;;;;;;;29.38;34.43;101403.36;102826;1293;485397;-78
2023/09/06 03:07:24;;;;;;;3.30;2.30;;;;;;;29.30;34.38;101404.49;103573;1294;59325;-78
2023/09/06 03:09:50;;;;;;;3.30;2.30;;;;;;;29.24;34.47;101406.37;103566;1292;59300;-78
2023/09/06 03:12:16;;;;;;;3.30;2.20;;;;;;;29.18;34.44;101408.50;103628;1291;59349;-79
2023/09/06 03:14:44;;;;;;;3.60;2.20;;;;;;;29.13;34.25;101413.36;103604;1293;59390;-78
2023/09/06 03:17:10;;;;;;;5.30;2.50;;;;;;;29.08;34.40;101414.05;103564;1295;59932;-78
2023/09/06 03:19:41;;;;;;;5.10;2.30;;;;;;;29.04;34.39;101416.39;103548;1293;59396;-78
2023/09/06 03:22:09;;;;;;;2.90;2.20;;;;;;;29.01;34.45;101415.81;103668;1291;63922;-78
2023/09/06 03:24:40;;;;;;;3.10;2.10;;;;;;;28.98;34.56;101416.66;103552;1290;63458;-78
2023/09/06 03:27:07;;;;;;;3.70;2.20;;;;;;;28.94;34.56;101418.59;103581;1290;59711;-78
2023/09/06 03:29:36;;;;;;;4.00;2.50;;;;;;;28.92;34.30;101422.27;103640;1291;59743;-78
2023/09/06 03:32:07;;;;;;;3.40;2.30;;;;;;;28.90;34.40;101423.73;103490;1297;63799;-78
2023/09/06 03:34:34;;;;;;;3.90;2.10;;;;;;;28.88;34.41;101424.66;103683;1292;64180;-79
2023/09/06 03:37:04;;;;;;;4.10;2.50;;;;;;;28.86;34.31;101428.44;103851;1290;61377;-78
2023/09/06 03:39:40;;;;;;;4.10;2.30;;;;;;;28.84;34.29;101432.05;103711;1294;59854;-78
2023/09/06 03:42:10;;;;;;;3.80;2.40;;;;;;;28.83;34.32;101436.34;103929;1295;63911;-79
2023/09/06 03:44:36;;;;;;;;;;;;;;;28.81;34.21;101439.91;103851;1294;64131;-78
2023/09/06 03:47:05;;;;;;;3.70;2.30;;;;;;;28.79;34.31;101437.50;103839;1289;59656;-78
2023/09/06 03:49:35;;;;;;;4.60;2.20;;;;;;;28.77;34.47;101439.96;103504;1289;60851;-78
2023/09/06 03:52:06;;;;;;;3.30;2.30;;;;;;;28.76;34.32;101442.19;103589;1291;64783;-78
2023/09/06 03:54:34;;;;;;;3.90;2.50;;;;;;;28.76;34.18;101443.14;103618;1294;64218;-78
2023/09/06 03:57:04;;;;;;;;;;;;;;;28.75;34.29;101448.11;103625;1294;59682;-78
2023/09/06 03:59:35;;;;;;;3.40;2.30;;;;;;;28.72;34.35;101447.28;103648;1290;59692;-78
2023/09/06 04:02:02;;;;;;;4.50;2.50;;;;;;;28.72;34.30;101446.23;103570;1292;63768;-78
2023/09/06 04:04:29;;;;;;;4.60;2.50;;;;;;;28.72;34.19;101442.02;103596;1290;64098;-78
2023/09/06 04:06:55;;;;;;;4.10;2.20;;;;;;;28.72;34.29;101439.88;103536;1292;59928;-78
2023/09/06 04:09:27;;;;;;;4.60;2.30;;;;;;;28.72;33.89;101442.45;103602;1293;60981;-78
2023/09/06 04:11:58;;;;;;;4.50;2.30;;;;;;;28.72;34.12;101444.66;103566;1292;63827;-78
2023/09/06 04:14:24;;;;;;;3.40;2.20;;;;;;;28.72;34.13;101447.17;103483;1294;64148;-78
2023/09/06 04:16:49;;;;;;;3.50;2.30;;;;;;;28.72;34.14;101451.86;103517;1294;59864;-78
2023/09/06 04:19:15;;;;;;;4.40;2.60;;;;;;;28.72;34.08;101453.32;103563;1295;60438;-78
2023/09/06 04:21:40;;;;;;;3.90;2.50;;;;;;;28.72;34.01;101452.98;103499;1294;59693;-78
2023/09/06 04:24:07;;;;;;;5.00;2.30;;;;;;;28.72;34.05;101454.96;103584;1291;59849;-78
2023/09/06 04:26:35;;;;;;;3.90;2.30;;;;;;;28.72;34.13;101459.70;103784;1292;64247;-78
2023/09/06 04:29:03;;;;;;;4.20;2.50;;;;;;;28.71;34.02;101464.94;103602;1294;59685;-78
2023/09/06 04:31:30;;;;;;;;;;;;;;;28.71;34.06;101468.73;103583;1292;59717;-78
2023/09/06 04:34:01;;;;;;;4.90;2.50;;;;;;;28.69;34.05;101472.77;103617;1294;63987;-78
2023/09/06 04:36:27;;;;;;;4.50;2.30;;;;;;;28.70;33.69;101475.44;103648;1294;64117;-78
2023/09/06 04:38:53;;;;;;;4.10;2.80;;;;;;;28.70;33.58;101479.06;103674;1292;59747;-79
2023/09/06 04:41:20;;;;;;;5.30;2.70;;;;;;;28.69;33.49;101478.17;103719;1291;59759;-78
2023/09/06 04:43:45;;;;;;;5.20;2.80;;;;;;;28.69;33.42;101476.77;103646;1294;60116;-78
2023/09/06 04:46:11;;;;;;;4.30;2.80;;;;;;;28.69;33.17;101472.23;103653;1293;59770;-78
2023/09/06 04:48:36;;;;;;;4.70;2.80;;;;;;;28.69;33.34;101475.68;103630;1295;61054;-78
2023/09/06 04:51:02;;;;;;;5.20;2.80;;;;;;;28.69;33.06;101478.23;103601;1292;59755;-78
2023/09/06 04:53:27;;;;;;;4.90;2.70;;;;;;;28.68;33.07;101481.91;103651;1295;59700;-78
2023/09/06 04:55:54;;;;;;;5.30;2.80;;;;;;;28.68;33.01;101481.92;103524;1295;59750;-78
2023/09/06 04:58:20;;;;;;;5.80;2.90;;;;;;;28.67;32.88;101484.73;103812;1290;61004;-78
2023/09/06 05:00:47;;;;;;;5.80;3.10;;;;;;;28.67;32.87;101489.63;103958;1293;60091;-78
2023/09/06 05:03:17;;;;;;;5.20;2.90;;;;;;;28.67;32.72;101492.91;103976;1292;59719;-78
2023/09/06 05:05:45;;;;;;;5.30;3.00;;;;;;;28.66;32.57;101491.55;104010;1295;63586;-78
2023/09/06 05:08:11;;;;;;;4.90;3.20;;;;;;;28.65;32.42;101490.20;103651;1297;64051;-79
2023/09/06 05:10:39;;;;;;;4.80;2.80;;;;;;;28.64;32.05;101489.35;103866;1292;59784;-79
2023/09/06 05:13:11;;;;;;;5.50;3.30;;;;;;;28.63;32.02;101492.88;104064;1298;59769;-80
2023/09/06 05:15:38;;;;;;;8.80;3.10;;;;;;;28.63;32.06;101493.45;103808;1293;63903;-79
2023/09/06 05:18:04;;;;;;;5.40;2.90;;;;;;;28.63;32.03;101497.99;104016;1293;59785;-78
2023/09/06 05:20:38;;;;;;;5.90;2.70;;;;;;;28.63;31.92;101499.23;103734;1296;59752;-78
2023/09/06 05:23:04;;;;;;;7.80;3.10;;;;;;;28.62;31.77;101504.55;105287;1293;59248;-80
2023/09/06 05:25:30;;;;;;;7.30;3.20;;;;;;;28.63;31.57;101510.63;104299;1294;59857;-80
2023/09/06 05:28:10;;;;;;;8.10;2.90;;;;;;;28.63;31.53;101511.02;104032;1293;59786;-78
2023/09/06 05:30:40;;;;;;;5.60;3.30;;;;;;;28.63;31.67;101511.55;103950;1292;59714;-79
2023/09/06 05:33:06;;;;;;;7.10;3.00;;;;;;;28.63;31.59;101512.30;104357;1291;59557;-79
2023/09/06 05:35:32;;;;;;;5.30;2.70;;;;;;;28.63;31.52;101514.11;104076;1292;59517;-79
2023/09/06 05:37:57;;;;;;;6.40;2.90;;;;;;;28.62;31.33;101513.06;103984;1297;60360;-79
2023/09/06 05:40:23;;;;;;;5.30;2.70;;;;;;;28.58;31.15;101514.15;103738;1296;59795;-79
2023/09/06 05:42:49;;;;;;;7.80;3.20;;;;;;;28.47;31.02;101512.10;103464;1296;59930;-79
2023/09/06 05:45:15;;;;;;;10.30;3.30;;;;;;;28.38;30.59;101515.45;103656;1297;60485;-79
2023/09/06 05:47:40;;;;;;;8.00;3.40;;;;;;;28.28;30.32;101513.25;103480;1296;60643;-79
2023/09/06 05:50:06;;;;;;;10.60;3.40;;;;;;;28.24;30.24;101517.26;103412;1295;64651;-78
2023/09/06 05:52:33;;;;;;;8.60;3.10;;;;;;;28.13;29.80;101523.55;103316;1295;59721;-78
2023/09/06 05:54:59;;;;;;;12.30;3.50;;;;;;;28.01;29.88;101528.41;103344;1295;59823;-79
2023/09/06 05:57:24;;;;;;;11.90;3.50;;;;;;;27.95;29.83;101528.37;103527;1299;59833;-79
2023/09/06 05:59:50;;;;;;;8.70;3.30;;;;;;;27.95;29.79;101527.23;103396;1295;59785;-79
2023/09/06 06:02:16;;;;;;;9.50;3.10;;;;;;;27.97;29.79;101526.38;103501;1295;59936;-80
2023/09/06 06:04:45;;;;;;;11.40;3.60;;;;;;;27.99;29.48;101527.67;103686;1297;59660;-79
2023/09/06 06:07:13;;;;;;;14.30;3.90;;;;;;;27.97;29.32;101526.35;103526;1293;59660;-82
2023/09/06 06:09:40;;;;;;;8.80;3.30;;;;;;;27.94;29.43;101525.92;103305;1298;63932;-78
2023/09/06 06:12:05;;;;;;;13.40;3.70;;;;;;;27.89;29.52;101525.65;103437;1291;59797;-78
2023/09/06 06:14:31;;;;;;;12.70;3.30;;;;;;;27.76;29.47;101527.98;103637;1292;59688;-80
2023/09/06 06:16:57;;;;;;;13.00;3.50;;;;;;;27.69;29.53;101525.08;103618;1291;59781;-79
2023/09/06 06:19:23;;;;;;;7.70;3.40;;;;;;;27.63;29.31;101531.90;103585;1292;60918;-79
2023/09/06 06:21:50;;;;;;;9.70;3.30;;;;;;;27.60;29.40;101536.29;103673;1295;59749;-78
2023/09/06 06:24:16;;;;;;;10.70;3.60;;;;;;;27.61;29.29;101535.13;103653;1292;59826;-78
2023/09/06 06:26:42;;;;;;;8.40;3.40;;;;;;;27.63;29.24;101532.85;103635;1292;60171;-78
2023/09/06 06:29:08;;;;;;;8.70;3.20;;;;;;;27.63;29.25;101534.75;103695;1292;61531;-79
2023/09/06 06:31:34;;;;;;;9.30;3.40;;;;;;;27.63;29.10;101531.89;103625;1295;59771;-78
2023/09/06 06:34:00;;;;;;;11.40;3.70;;;;;;;27.60;29.23;101530.02;103751;1294;59659;-79
2023/09/06 06:36:26;;;;;;;8.30;3.20;;;;;;;27.61;29.25;101533.69;103742;1294;59874;-79
2023/09/06 06:38:51;;;;;;;10.80;3.40;;;;;;;27.65;29.21;101536.48;103833;1291;59802;-79
2023/09/06 06:41:20;;;;;;;9.80;3.80;;;;;;;27.62;29.12;101534.89;103911;1292;59659;-79
2023/09/06 06:43:49;;;;;;;9.40;3.60;;;;;;;27.60;29.35;101534.52;104117;1292;64149;-79
2023/09/06 06:46:44;;;;;;;14.20;3.60;;;;;;;27.60;29.69;101535.03;104092;1292;59784;-79
2023/09/06 06:49:09;;;;;;;9.80;3.50;;;;;;;27.64;29.57;101531.85;103479;1303;60119;-81
2023/09/06 06:51:40;;;;;;;11.40;3.80;;;;;;;27.68;29.32;101535.98;103599;1299;59700;-79
2023/09/06 06:54:10;;;;;;;9.10;3.80;;;;;;;27.67;29.64;101535.48;103641;1303;64279;-79
2023/09/06 06:56:36;;;;;;;7.50;3.60;;;;;;;27.64;29.73;101535.62;103373;1298;59680;-79
2023/09/06 06:59:13;;;;;;;7.70;3.90;;;;;;;27.57;29.68;101538.23;103138;1297;59777;-79
2023/09/06 07:01:38;;;;;;;8.00;3.70;;;;;;;27.43;29.40;101538.35;103334;1297;63759;-79
2023/09/06 07:04:04;;;;;;;12.00;3.90;;;;;;;27.36;29.72;101537.08;103299;1298;59724;-80
2023/09/06 07:06:30;;;;;;;11.10;4.10;;;;;;;27.35;29.71;101537.57;103476;1302;59798;-80
2023/09/06 07:08:56;;;;;;;11.40;3.70;;;;;;;27.30;29.66;101535.98;103249;1301;60697;-80
2023/09/06 07:11:22;;;;;;;7.70;3.60;;;;;;;27.31;30.19;101535.55;103166;1300;60671;-79
2023/09/06 07:13:50;;;;;;;7.50;3.60;;;;;;;27.40;30.20;101540.02;103202;1303;60689;-79
2023/09/06 07:16:17;;;;;;;6.20;3.50;;;;;;;27.50;30.11;101539.52;103138;1298;60496;-79
2023/09/06 07:18:43;;;;;;;9.40;3.90;;;;;;;27.58;30.19;101539.20;103202;1298;60690;-80
2023/09/06 07:21:09;;;;;;;8.40;3.60;;;;;;;27.66;30.31;101538.14;103200;1299;60768;-79
2023/09/06 07:23:34;;;;;;;9.60;3.70;;;;;;;27.73;30.34;101538.23;103349;1297;60694;-79
2023/09/06 07:26:00;;;;;;;6.60;3.60;;;;;;;27.81;30.34;101539.74;103288;1291;60600;-78
2023/09/06 07:28:31;;;;;;;9.20;3.70;;;;;;;27.86;30.32;101537.05;104084;1292;60549;-82
2023/09/06 07:30:57;;;;;;;9.80;3.70;;;;;;;27.91;30.37;101531.23;103940;1292;60431;-79
2023/09/06 07:33:22;;;;;;;9.00;3.90;;;;;;;27.96;30.46;101532.58;103833;1293;60443;-80
2023/09/06 07:35:48;;;;;;;6.50;3.70;;;;;;;28.00;30.30;101534.06;103750;1292;60521;-78
2023/09/06 07:38:13;;;;;;;10.30;3.40;;;;;;;28.05;30.31;101534.00;103919;1292;60494;-79
2023/09/06 07:40:39;;;;;;;8.10;3.80;;;;;;;28.07;30.47;101528.73;103897;1294;60495;-78
2023/09/06 07:43:05;;;;;;;8.60;3.70;;;;;;;28.09;30.35;101531.08;103969;1292;60552;-78
2023/09/06 07:45:31;;;;;;;6.20;3.80;;;;;;;28.12;30.34;101527.02;103976;1292;60476;-79
2023/09/06 07:47:57;;;;;;;8.00;4.20;;;;;;;28.15;30.51;101528.38;104120;1292;60385;-78
2023/09/06 07:50:22;;;;;;;9.00;4.30;;;;;;;28.19;30.48;101528.57;104264;1289;60578;-78
2023/09/06 07:52:48;;;;;;;6.00;3.80;;;;;;;28.21;30.50;101530.40;104243;1295;60508;-78
2023/09/06 07:55:13;;;;;;;6.90;3.90;;;;;;;28.23;30.57;101530.17;103853;1297;60493;-80
2023/09/06 07:57:40;;;;;;;9.00;3.80;;;;;;;28.25;30.34;101523.17;104081;1291;60588;-78
2023/09/06 08:00:06;;;;;;;6.20;3.80;;;;;;;28.27;30.53;101529.33;103947;1291;64843;-78
2023/09/06 08:02:32;;;;;;;6.20;3.90;;;;;;;28.29;30.46;101529.31;103806;1292;61147;-78
2023/09/06 08:04:57;;;;;;;6.50;3.90;;;;;;;28.31;30.45;101526.23;104353;1292;60549;-80
2023/09/06 08:07:23;;;;;;;7.40;4.00;;;;;;;28.33;30.53;101533.09;105240;1290;60331;-80
2023/09/06 08:09:49;;;;;;;7.40;3.80;;;;;;;28.34;30.54;101536.99;104364;1292;60559;-79
2023/09/06 08:12:15;;;;;;;7.30;3.60;;;;;;;28.35;30.31;101542.38;104231;1291;60522;-78
2023/09/06 08:14:42;;;;;;;7.20;3.20;;;;;;;28.35;30.43;101539.82;104054;1292;62162;-80
2023/09/06 08:17:08;;;;;;;7.50;3.70;;;;;;;28.35;30.41;101536.33;104467;1293;60364;-82
2023/09/06 08:19:34;;;;;;;6.50;3.80;;;;;;;28.37;30.32;101535.62;105720;1290;58138;-79
2023/09/06 08:22:00;;;;;;;8.60;3.90;;;;;;;28.39;30.38;101533.26;104433;1292;60554;-80
2023/09/06 08:24:25;;;;;;;9.90;4.10;;;;;;;28.40;30.41;101531.67;104681;1295;60345;-81
2023/09/06 08:26:51;;;;;;;12.40;3.60;;;;;;;28.41;30.31;101537.25;104508;1292;60549;-78
2023/09/06 08:29:17;;;;;;;10.30;3.90;;;;;;;28.38;30.43;101534.63;104379;1292;60580;-79
2023/09/06 08:31:42;;;;;;;9.20;3.60;;;;;;;28.37;30.35;101533.11;104445;1290;59377;-78
2023/09/06 08:34:09;;;;;;;8.10;3.40;;;;;;;28.37;30.34;101538.00;104438;1291;59902;-79
2023/09/06 08:36:35;;;;;;;7.50;3.50;;;;;;;28.36;30.55;101543.10;104683;1290;60433;-80
2023/09/06 08:39:01;;;;;;;10.30;3.80;;;;;;;28.35;30.47;101543.96;104571;1290;60667;-79
2023/09/06 08:41:26;;;;;;;12.30;4.00;;;;;;;28.36;30.60;101542.98;104746;1295;60559;-79
2023/09/06 08:43:52;;;;;;;7.20;3.40;;;;;;;28.38;30.61;101544.25;104990;1292;60503;-81
2023/09/06 08:46:22;;;;;;;11.40;3.70;;;;;;;28.39;30.84;101542.86;104747;1292;60620;-79
2023/09/06 08:48:48;;;;;;;11.00;3.40;;;;;;;28.40;30.56;101546.54;104532;1291;60383;-80
2023/09/06 08:51:14;;;;;;;8.80;3.60;;;;;;;28.42;30.66;101540.95;104736;1292;60754;-80
2023/09/06 08:53:43;;;;;;;8.00;3.40;;;;;;;28.44;30.55;101543.15;105035;1291;59092;-79
2023/09/06 08:56:09;;;;;;;5.50;3.30;;;;;;;28.46;30.71;101547.15;104599;1291;65419;-80
2023/09/06 08:58:35;;;;;;;5.90;3.40;;;;;;;28.46;30.67;101545.66;104443;1292;60542;-80
2023/09/06 09:01:03;;;;;;;11.10;3.50;;;;;;;28.45;30.69;101544.83;104662;1291;60486;-79
2023/09/06 09:03:29;;;;;;;11.70;3.80;;;;;;;28.45;30.67;101545.77;104630;1292;63748;-78
2023/09/06 09:06:06;;;;;;;12.70;3.90;;;;;;;28.47;30.70;101545.81;104324;1292;60476;-79
2023/09/06 09:08:35;;;;;;;5.60;3.30;;;;;;;28.47;30.67;101538.91;105627;1290;60610;-80
2023/09/06 09:11:21;;;;;;;6.80;3.40;;;;;;;28.48;30.80;101544.98;104408;1292;61047;-80
2023/09/06 09:13:46;;;;;;;5.90;3.30;;;;;;;28.48;30.82;101547.10;104280;1290;63914;-78
2023/09/06 09:16:14;;;;;;;8.70;3.30;;;;;;;28.49;30.75;101546.29;104347;1292;60492;-80
2023/09/06 09:18:42;;;;;;;7.90;3.30;;;;;;;28.50;30.66;101546.92;104592;1292;60453;-78
2023/09/06 09:21:12;;;;;;;7.00;3.20;;;;;;;28.50;30.72;101551.24;104247;1292;62317;-78
2023/09/06 09:23:46;;;;;;;8.80;3.70;;;;;;;28.51;30.79;101550.70;104180;1290;63629;-79
2023/09/06 09:26:12;;;;;;;12.00;3.80;;;;;;;28.51;30.95;101546.62;104152;1292;64750;-79
2023/09/06 09:28:40;;;;;;;10.90;3.60;;;;;;;28.53;31.05;101550.28;104055;1292;60580;-79
2023/09/06 09:31:09;;;;;;;10.10;3.30;;;;;;;28.54;31.14;101552.88;104062;1293;60571;-78
2023/09/06 09:33:35;;;;;;;8.30;3.30;;;;;;;28.55;31.25;101551.54;103523;1292;62807;-77
2023/09/06 09:36:01;;;;;;;7.70;3.30;;;;;;;28.55;30.96;101554.27;104007;1292;60487;-78
2023/09/06 09:38:27;;;;;;;10.80;3.40;;;;;;;28.54;30.96;101552.13;104035;1292;60402;-79
2023/09/06 09:41:06;;;;;;;10.10;3.70;;;;;;;28.54;30.98;101547.48;104082;1290;60926;-78
2023/09/06 09:43:32;;;;;;;8.30;3.40;;;;;;;28.54;31.14;101547.86;104022;1291;63552;-81
2023/09/06 09:45:58;;;;;;;7.40;3.50;;;;;;;28.54;31.17;101548.23;103929;1291;60572;-78
2023/09/06 09:48:33;;;;;;;11.50;3.30;;;;;;;28.53;31.17;101545.59;104123;1291;60599;-78
2023/09/06 09:51:04;;;;;;;8.40;3.40;;;;;;;28.51;30.93;101540.18;104157;1291;60514;-78
2023/09/06 09:53:31;;;;;;;9.70;3.50;;;;;;;28.45;30.89;101538.69;104483;1291;64001;-78
2023/09/06 09:55:57;;;;;;;7.80;3.20;;;;;;;28.42;30.96;101540.54;104557;1291;65560;-79
2023/09/06 09:58:22;;;;;;;11.40;3.50;;;;;;;28.44;31.11;101539.34;104396;1292;60511;-81
2023/09/06 10:00:52;;;;;;;8.50;3.70;;;;;;;28.46;31.17;101539.34;104445;1291;58881;-78
2023/09/06 10:03:18;;;;;;;6.30;3.30;;;;;;;28.46;30.89;101538.81;104696;1292;63569;-78
2023/09/06 10:05:45;;;;;;;10.20;3.30;;;;;;;28.43;30.83;101540.86;104493;1292;65036;-78
2023/09/06 10:08:10;;;;;;;7.10;3.00;;;;;;;28.40;30.71;101532.08;104502;1292;60421;-78
2023/09/06 10:10:37;;;;;;;6.70;3.30;;;;;;;28.41;30.75;101535.43;104330;1292;60577;-78
2023/09/06 10:13:06;;;;;;;7.00;3.00;;;;;;;28.42;30.84;101537.45;104258;1292;63798;-78
2023/09/06 10:15:32;;;;;;;9.20;3.10;;;;;;;28.44;30.80;101531.36;104582;1292;64879;-79
2023/09/06 10:17:59;;;;;;;5.30;2.90;;;;;;;28.46;30.83;101530.32;104176;1292;60658;-78
2023/09/06 10:20:26;;;;;;;7.60;3.10;;;;;;;28.47;30.56;101529.69;103925;1292;59260;-78
2023/09/06 10:22:55;;;;;;;9.40;3.50;;;;;;;28.48;30.58;101526.34;103848;1292;63800;-78
2023/09/06 10:25:21;;;;;;;9.50;3.30;;;;;;;28.50;30.85;101527.44;104011;1292;66242;-78
2023/09/06 10:27:52;;;;;;;6.00;3.20;;;;;;;28.51;30.74;101531.98;103954;1294;60453;-78
2023/09/06 10:30:50;;;;;;;8.20;3.20;;;;;;;28.52;30.85;101527.35;103945;1297;61106;-78
2023/09/06 10:33:56;;;;;;;10.40;3.40;;;;;;;28.55;30.75;101530.95;104243;1292;63649;-79
2023/09/06 10:36:27;;;;;;;8.10;3.40;;;;;;;28.56;30.80;101524.26;103522;1300;73533;-79
2023/09/06 10:39:10;;;;;;;5.50;3.30;;;;;;;28.57;30.86;101524.70;104773;1300;58993;-78
2023/09/06 10:41:36;;;;;;;5.90;3.30;;;;;;;28.59;30.61;101522.58;103509;1301;60509;-79
2023/09/06 10:44:07;;;;;;;7.10;3.40;;;;;;;28.60;30.57;101526.85;103421;1303;64109;-78
2023/09/06 10:46:33;;;;;;;4.70;3.10;;;;;;;28.61;30.57;101525.98;103471;1301;65055;-81
2023/09/06 10:49:25;;;;;;;7.60;3.20;;;;;;;28.62;30.75;101524.48;103563;1300;60409;-78
2023/09/06 10:52:10;;;;;;;5.40;3.20;;;;;;;28.63;30.87;101524.04;103560;1300;60476;-78
2023/09/06 10:54:44;;;;;;;5.20;3.30;;;;;;;28.64;30.73;101522.36;103452;1297;64076;-78
2023/09/06 10:57:13;;;;;;;6.20;3.00;;;;;;;28.64;30.74;101517.62;103463;1300;65179;-79
2023/09/06 10:59:43;;;;;;;4.50;2.80;;;;;;;28.65;30.76;101517.89;103404;1300;60395;-79
2023/09/06 11:02:21;;;;;;;5.80;3.10;;;;;;;28.65;30.61;101511.91;103308;1299;60780;-79
2023/09/06 11:04:46;;;;;;;6.20;3.00;;;;;;;28.66;30.67;101507.14;103616;1300;63944;-79
2023/09/06 11:07:12;;;;;;;22.80;6.40;;;;;;;28.66;30.76;101503.67;103748;1292;60756;-78
2023/09/06 11:09:43;;;;;;;104.80;22.90;;;;;;;28.66;30.67;101504.44;104345;1292;59297;-79
2023/09/06 11:12:13;;;;;;;85.80;20.90;;;;;;;28.65;30.72;101500.90;104293;1291;60490;-78
2023/09/06 11:14:39;;;;;;;31.00;9.10;;;;;;;28.65;30.70;101503.98;104239;1292;63950;-79
2023/09/06 11:17:05;;;;;;;35.50;9.00;;;;;;;28.65;30.61;101503.98;104132;1291;67181;-81
2023/09/06 11:19:31;;;;;;;29.60;8.70;;;;;;;28.65;30.64;101497.64;104302;1291;60565;-79
2023/09/06 11:22:08;;;;;;;25.50;8.00;;;;;;;28.65;30.83;101503.26;104587;1291;60496;-78
2023/09/06 11:24:35;;;;;;;24.60;7.80;;;;;;;28.63;30.50;101489.30;104531;1292;63698;-78
2023/09/06 11:27:14;;;;;;;18.90;7.00;;;;;;;28.62;30.63;101488.27;104262;1290;65006;-78
2023/09/06 11:29:39;;;;;;;16.10;6.50;;;;;;;28.61;30.62;101491.61;104301;1291;60463;-78
2023/09/06 11:32:08;;;;;;;16.90;5.50;;;;;;;28.60;30.54;101481.36;104274;1291;60508;-78
2023/09/06 11:34:45;;;;;;;12.70;5.10;;;;;;;28.60;30.54;101476.31;104057;1289;65018;-80
2023/09/06 11:37:13;;;;;;;12.50;5.20;;;;;;;28.60;30.72;101473.17;104327;1291;65182;-78